Angola, LA

10:12 PM CST on March 02, 2015 (GMT -0600)
False River | Change Station
CLOSE
Current Station
Airport
Location: New Roads False River Regiona,
Elevation: 39 ft
Nearby Weather Stations
Active Advisory: Dense Fog Advisory

Elev 39 ft 30.72 °N, 91.48 °W | Updated 17 minutes ago

Fog
Fog
50 °F
Feels Like 50 °F
N
6
Wind Variable Wind from NW

Today
High -- | Low -- °F
--% Chance of Precip.
Yesterday
High -- | Low -- °F
Precip. -- in
6:31 AM 6:05 PM
Waxing Gibbous, 94% visible
Pressure 30.23 in
Visibility 0.5 miles
Clouds Overcast 300 ft
Dew Point 49 °F
Humidity 99%
Rainfall 4.99 in
Snow Depth Not available.
UV 0 out of 12
Pollen 7.40 out of 12
Air Quality Not available.
Flu Activity Not available.
METAR KHZR 030355Z AUTO 31005KT 1/2SM FG OVC003 10/10 A3023 RMK AO2 T00970095

More Conditions Fewer Conditions

Pressure 30.23 in
Visibility 0.5 miles
Clouds Overcast 300 ft
Dew Point 49 °F
Humidity 99%
Rainfall 4.99 in
Snow Depth Not available.
UV 0 out of 12
Pollen 7.40 out of 12
Air Quality Not available.
Flu Activity Not available.
METAR KHZR 030355Z AUTO 31005KT 1/2SM FG OVC003 10/10 A3023 RMK AO2 T00970095

More Conditions Fewer Conditions

10-Day Weather Forecast

Almanac

Astronomy

Mar. 02, 2015 Rise Set
Actual Time
Civil Twilight
Nautical Twilight
Astronomical Twilight
Moon
Length of Visible Light
Length of Day
Tomorrow will be .
, % of the Moon is Illuminated

Today's Extremes

State Highs State Lows

Community

WunderPhotos

Upload Photos

1,802,064 photos uploaded!

WunderBlogs® & News

Nearby

Air Quality

  Air Quality AQ Index Pollutant
Not available.

Snow Depth

Station Depth Elevation

Earthquake Activity

City Distance Mag. Time & Date
Minimum magnitude displayed is 2.5.

Coastal Water Temperatures

Place Temperature

Nearby Weather Stations

Dense Fog Advisory
Statement as of 9:25 PM CST on March 02, 2015

... Dense fog advisory remains in effect until 9 am CST Tuesday...

* visibility... one quarter mile or less.

* Duration... tonight through mid morning Tuesday

* impacts... reduced visibilities on area roadways could cause
hazardous driving conditions through Tuesday morning.

Precautionary/preparedness actions...

A dense fog advisory means visibilities will frequently be
reduced to less than one quarter mile. If driving... slow down...
use your headlights... and leave plenty of distance ahead of you.